createdAt,value
2023-01-21T00:01:23.205Z,13.00
2023-01-21T00:03:55.543Z,12.38
2023-01-21T00:06:27.675Z,11.43
2023-01-21T00:08:59.807Z,12.93
2023-01-21T00:11:32.026Z,13.07
2023-01-21T00:14:04.106Z,12.02
2023-01-21T00:16:36.316Z,12.38
2023-01-21T00:19:08.369Z,11.68
2023-01-21T00:21:40.508Z,12.52
2023-01-21T00:24:12.637Z,12.70
2023-01-21T00:26:44.863Z,12.77
2023-01-21T00:29:16.896Z,11.48
2023-01-21T00:31:49.049Z,11.35
2023-01-21T00:34:21.160Z,12.07
2023-01-21T00:36:55.142Z,11.70
2023-01-21T00:39:28.515Z,11.77
2023-01-21T00:42:00.753Z,12.48
2023-01-21T00:44:35.263Z,12.73
2023-01-21T00:47:08.543Z,12.05
2023-01-21T00:49:40.621Z,12.00
2023-01-21T00:52:12.681Z,11.90
2023-01-21T00:54:44.759Z,13.50
2023-01-21T00:57:16.787Z,12.85
2023-01-21T00:59:49.092Z,11.13
2023-01-21T01:02:21.097Z,11.07
2023-01-21T01:04:53.142Z,11.57
2023-01-21T01:07:35.599Z,10.20
2023-01-21T01:10:08.243Z,9.75
2023-01-21T01:12:41.318Z,9.07
2023-01-21T01:15:13.892Z,9.05
2023-01-21T01:17:46.141Z,9.45
2023-01-21T01:20:18.578Z,9.85
2023-01-21T01:22:50.744Z,9.60
2023-01-21T01:25:22.675Z,9.25
2023-01-21T01:27:54.628Z,11.02
2023-01-21T01:30:26.637Z,9.45
2023-01-21T01:32:58.725Z,10.10
2023-01-21T01:35:32.745Z,9.07
2023-01-21T01:38:08.010Z,10.85
2023-01-21T01:40:40.943Z,10.27
2023-01-21T01:43:19.524Z,10.63
2023-01-21T01:45:54.925Z,10.32
2023-01-21T01:48:32.128Z,9.32
2023-01-21T01:51:07.326Z,10.02
2023-01-21T01:53:43.207Z,11.63
2023-01-21T01:56:16.503Z,9.15
2023-01-21T01:58:49.430Z,10.88
2023-01-21T02:01:23.769Z,11.02
2023-01-21T02:04:00.941Z,11.35
2023-01-21T02:06:38.542Z,11.52
2023-01-21T02:09:11.396Z,10.98
2023-01-21T02:11:43.343Z,10.30
2023-01-21T02:14:15.495Z,10.93
2023-01-21T02:17:00.338Z,11.32
2023-01-21T02:20:22.791Z,10.35
2023-01-21T02:23:24.980Z,9.82
2023-01-21T02:26:29.687Z,10.25
2023-01-21T02:29:39.864Z,10.80
2023-01-21T02:32:55.865Z,10.23
2023-01-21T02:36:24.792Z,9.23
2023-01-21T02:39:43.737Z,12.60
2023-01-21T02:42:50.863Z,10.90
2023-01-21T02:45:49.703Z,11.15
2023-01-21T02:48:35.899Z,11.88
2023-01-21T02:51:13.177Z,12.70
2023-01-21T02:53:45.185Z,11.93
2023-01-21T02:56:22.765Z,12.95
2023-01-21T02:59:04.723Z,11.13
2023-01-21T03:01:55.461Z,12.27
2023-01-21T03:05:23.081Z,11.10
2023-01-21T03:08:22.241Z,12.32
2023-01-21T03:11:18.101Z,11.18
2023-01-21T03:14:16.727Z,12.00
2023-01-21T03:17:21.595Z,10.45
2023-01-21T03:20:15.165Z,11.93
2023-01-21T03:22:59.357Z,12.15
2023-01-21T03:25:38.469Z,11.30
2023-01-21T03:28:17.319Z,11.65
2023-01-21T03:30:58.997Z,11.90
2023-01-21T03:33:39.406Z,11.57
2023-01-21T03:36:40.635Z,12.73
2023-01-21T03:39:43.717Z,11.57
2023-01-21T03:42:24.619Z,11.93
2023-01-21T03:44:57.751Z,13.02
2023-01-21T03:47:34.677Z,12.82
2023-01-21T03:50:17.222Z,11.73
2023-01-21T03:53:02.639Z,12.23
2023-01-21T03:55:36.745Z,12.10
2023-01-21T03:58:08.755Z,11.85
2023-01-21T04:00:40.769Z,12.48
2023-01-21T04:03:12.703Z,12.77
2023-01-21T04:05:44.799Z,12.25
2023-01-21T04:08:16.892Z,13.35
2023-01-21T04:10:48.875Z,13.20
2023-01-21T04:13:20.890Z,10.90
2023-01-21T04:15:52.820Z,12.18
2023-01-21T04:18:24.956Z,11.48
2023-01-21T04:20:57.196Z,11.25
2023-01-21T04:23:29.340Z,13.02
2023-01-21T04:26:01.460Z,12.55
2023-01-21T04:28:33.629Z,11.40
2023-01-21T04:31:05.656Z,11.15
2023-01-21T04:33:38.347Z,11.63
2023-01-21T04:36:10.471Z,11.10
2023-01-21T04:38:42.622Z,9.95
2023-01-21T04:41:14.683Z,12.02
2023-01-21T04:43:46.592Z,10.48
2023-01-21T04:46:18.508Z,11.50
2023-01-21T04:48:50.503Z,10.43
2023-01-21T04:51:22.676Z,12.13
2023-01-21T04:53:54.802Z,11.43
2023-01-21T04:56:26.758Z,13.15
2023-01-21T04:58:58.654Z,11.10
2023-01-21T05:01:30.721Z,12.27
2023-01-21T05:04:02.934Z,11.90
2023-01-21T05:06:35.127Z,10.57
2023-01-21T05:09:07.086Z,12.77
2023-01-21T05:11:39.108Z,11.43
2023-01-21T05:14:11.211Z,11.10
2023-01-21T05:16:43.196Z,12.27
2023-01-21T05:19:15.481Z,10.80
2023-01-21T05:21:47.485Z,10.10
2023-01-21T05:24:19.493Z,11.43
2023-01-21T05:26:51.734Z,11.48
2023-01-21T05:29:23.786Z,11.15
2023-01-21T05:31:56.021Z,11.20
2023-01-21T05:34:28.120Z,11.20
2023-01-21T05:37:00.176Z,11.13
2023-01-21T05:39:32.641Z,11.60
2023-01-21T05:42:04.653Z,11.65
2023-01-21T05:44:36.645Z,12.55
2023-01-21T05:47:08.846Z,13.73
2023-01-21T05:49:40.922Z,12.23
2023-01-21T05:52:12.950Z,13.15
2023-01-21T05:55:00.617Z,14.18
2023-01-21T05:57:34.027Z,13.65
2023-01-21T06:00:10.902Z,14.25
2023-01-21T06:02:43.541Z,15.70
2023-01-21T06:05:28.816Z,14.27
2023-01-21T06:08:00.980Z,14.63
2023-01-21T06:10:33.097Z,14.32
2023-01-21T06:13:05.463Z,18.00
2023-01-21T06:15:37.675Z,16.50
2023-01-21T06:18:10.022Z,17.00
2023-01-21T06:20:42.059Z,16.45
2023-01-21T06:23:14.428Z,18.98
2023-01-21T06:25:46.607Z,17.23
2023-01-21T06:28:18.524Z,17.65
2023-01-21T06:30:50.685Z,16.40
2023-01-21T06:33:22.824Z,16.45
2023-01-21T06:35:54.794Z,17.35
2023-01-21T06:38:26.762Z,18.02
2023-01-21T06:40:58.892Z,17.63
2023-01-21T06:43:33.094Z,19.08
2023-01-21T06:46:05.416Z,17.52
2023-01-21T06:48:37.633Z,17.75
2023-01-21T06:51:10.193Z,18.10
2023-01-21T06:53:42.257Z,19.15
2023-01-21T06:56:14.197Z,17.02
2023-01-21T06:58:46.263Z,16.77
2023-01-21T07:01:18.887Z,16.52
2023-01-21T07:03:50.921Z,16.77
2023-01-21T07:06:22.892Z,17.80
2023-01-21T07:08:56.178Z,19.25
2023-01-21T07:11:28.209Z,18.70
2023-01-21T07:14:01.328Z,17.20
2023-01-21T07:16:33.392Z,17.63
2023-01-21T07:19:05.748Z,17.52
2023-01-21T07:21:37.841Z,18.45
2023-01-21T07:24:14.633Z,18.38
2023-01-21T07:26:46.733Z,18.73
2023-01-21T07:29:19.451Z,17.95
2023-01-21T07:31:51.862Z,15.85
2023-01-21T07:35:21.936Z,17.63
2023-01-21T07:37:54.141Z,16.83
2023-01-21T07:40:26.178Z,18.60
2023-01-21T07:42:58.309Z,17.38
2023-01-21T07:45:30.401Z,17.08
2023-01-21T07:48:02.493Z,15.63
2023-01-21T07:50:45.425Z,15.60
2023-01-21T07:53:17.588Z,18.13
2023-01-21T07:55:49.647Z,16.67
2023-01-21T07:58:21.668Z,17.10
2023-01-21T08:00:53.702Z,16.60
2023-01-21T08:03:26.029Z,17.80
2023-01-21T08:05:58.072Z,18.08
2023-01-21T08:08:30.289Z,15.85
2023-01-21T08:11:03.018Z,16.73
2023-01-21T08:13:50.640Z,16.38
2023-01-21T08:16:22.962Z,15.40
2023-01-21T08:18:55.236Z,17.30
2023-01-21T08:21:27.298Z,15.50
2023-01-21T08:23:59.338Z,16.73
2023-01-21T08:26:31.372Z,16.33
2023-01-21T08:29:03.831Z,16.33
2023-01-21T08:31:36.657Z,15.45
2023-01-21T08:34:09.080Z,14.77
2023-01-21T08:36:41.334Z,16.08
2023-01-21T08:39:14.968Z,16.83
2023-01-21T08:41:47.517Z,17.10
2023-01-21T08:44:46.107Z,18.83
2023-01-21T08:47:22.114Z,14.65
2023-01-21T08:49:54.738Z,15.32
2023-01-21T08:52:27.476Z,16.10
2023-01-21T08:55:00.186Z,16.70
2023-01-21T08:57:32.467Z,16.65
2023-01-21T09:00:05.803Z,16.52
2023-01-21T09:02:38.709Z,17.15
2023-01-21T09:05:10.945Z,16.35
2023-01-21T09:07:43.459Z,18.02
2023-01-21T09:10:38.784Z,17.67
2023-01-21T09:13:37.582Z,18.15
2023-01-21T09:16:14.011Z,18.70
2023-01-21T09:18:53.761Z,18.63
2023-01-21T09:21:27.192Z,18.60
2023-01-21T09:24:00.596Z,18.98
2023-01-21T09:26:33.086Z,19.08
2023-01-21T09:29:05.300Z,18.45
2023-01-21T09:31:37.786Z,19.52
2023-01-21T09:34:11.757Z,19.27
2023-01-21T09:36:44.509Z,20.13
2023-01-21T09:39:16.473Z,20.48
2023-01-21T09:41:54.344Z,19.92
2023-01-21T09:44:45.298Z,18.98
2023-01-21T09:47:31.888Z,20.38
2023-01-21T09:50:22.174Z,17.52
2023-01-21T09:53:04.710Z,17.55
2023-01-21T09:56:04.663Z,15.85
2023-01-21T09:59:21.045Z,15.38
2023-01-21T10:02:14.967Z,15.75
2023-01-21T10:05:38.064Z,15.75
2023-01-21T10:08:48.537Z,17.42
2023-01-21T10:12:09.278Z,17.20
2023-01-21T10:15:22.357Z,15.32
2023-01-21T10:18:12.881Z,17.08
2023-01-21T10:21:03.676Z,17.70
2023-01-21T10:23:50.033Z,19.77
2023-01-21T10:26:31.881Z,17.35
2023-01-21T10:29:05.424Z,17.48
2023-01-21T10:31:44.507Z,19.35
2023-01-21T10:34:24.370Z,17.80
2023-01-21T10:37:37.122Z,17.25
2023-01-21T10:40:44.042Z,14.80
2023-01-21T10:44:04.251Z,17.52
2023-01-21T10:47:16.693Z,18.02
2023-01-21T10:50:18.518Z,15.73
2023-01-21T10:53:49.148Z,16.55
2023-01-21T11:00:32.801Z,16.50
2023-01-21T11:03:45.400Z,19.15
2023-01-21T11:07:17.734Z,18.17
2023-01-21T11:09:51.796Z,15.68
2023-01-21T11:12:25.043Z,15.95
2023-01-21T11:15:00.568Z,17.20
2023-01-21T11:17:45.960Z,15.52
2023-01-21T11:20:40.806Z,15.90
2023-01-21T11:23:25.913Z,17.23
2023-01-21T11:26:16.617Z,13.98
2023-01-21T11:29:16.903Z,14.68
2023-01-21T11:32:04.953Z,14.30
2023-01-21T11:34:50.779Z,16.45
2023-01-21T11:37:36.309Z,14.30
2023-01-21T11:40:26.830Z,14.70
2023-01-21T11:42:59.731Z,15.18
2023-01-21T11:45:36.914Z,14.60
2023-01-21T11:48:20.924Z,16.55
2023-01-21T11:51:06.976Z,16.60
2023-01-21T11:53:43.611Z,15.60
2023-01-21T11:56:18.306Z,14.88
2023-01-21T11:58:50.892Z,15.45
2023-01-21T12:01:23.207Z,15.15
2023-01-21T12:04:00.778Z,15.85
2023-01-21T12:06:36.688Z,15.50
2023-01-21T12:09:23.381Z,16.98
2023-01-21T12:12:31.185Z,14.20
2023-01-21T12:15:30.893Z,13.65
2023-01-21T12:18:49.782Z,15.77
2023-01-21T12:22:11.939Z,15.35
2023-01-21T12:25:12.272Z,16.65
2023-01-21T12:28:29.479Z,14.20
2023-01-21T12:31:32.687Z,16.83
2023-01-21T12:34:56.251Z,16.77
2023-01-21T12:37:57.375Z,13.98
2023-01-21T12:40:46.531Z,15.98
2023-01-21T12:43:43.636Z,14.48
2023-01-21T12:46:57.349Z,16.70
2023-01-21T12:50:06.316Z,14.68
2023-01-21T12:53:38.645Z,13.45
2023-01-21T12:56:57.315Z,15.25
2023-01-21T12:59:50.737Z,14.25
2023-01-21T13:02:51.910Z,15.95
2023-01-21T13:06:23.968Z,15.55
2023-01-21T13:09:11.773Z,14.05
2023-01-21T13:12:19.183Z,14.30
2023-01-21T13:15:34.783Z,14.68
2023-01-21T13:18:22.635Z,12.70
2023-01-21T13:21:37.625Z,15.02
2023-01-21T13:24:55.194Z,11.98
2023-01-21T13:27:46.594Z,14.38
2023-01-21T13:31:09.795Z,13.18
2023-01-21T13:34:15.841Z,13.05
2023-01-21T13:37:08.074Z,13.38
2023-01-21T13:40:08.208Z,14.10
2023-01-21T13:43:24.628Z,12.45
2023-01-21T13:46:19.531Z,13.20
2023-01-21T13:49:40.452Z,13.60
2023-01-21T13:52:58.775Z,11.80
2023-01-21T13:55:50.574Z,13.18
2023-01-21T13:58:52.076Z,12.02
2023-01-21T14:01:36.964Z,12.57
2023-01-21T14:04:43.177Z,12.10
2023-01-21T14:08:10.086Z,12.65
2023-01-21T14:10:53.874Z,13.68
2023-01-21T14:13:50.791Z,13.23
2023-01-21T14:17:05.675Z,13.93
2023-01-21T14:20:13.253Z,12.35
2023-01-21T14:23:21.819Z,14.40
2023-01-21T14:26:31.951Z,12.48
2023-01-21T14:29:57.655Z,12.50
2023-01-21T14:32:44.963Z,13.50
2023-01-21T14:36:00.907Z,14.15
2023-01-21T14:39:02.331Z,14.07
2023-01-21T14:42:04.696Z,14.32
2023-01-21T14:45:02.577Z,14.60
2023-01-21T14:47:38.730Z,12.73
2023-01-21T14:51:00.662Z,12.23
2023-01-21T14:53:47.374Z,12.27
2023-01-21T14:56:32.219Z,11.55
2023-01-21T14:59:25.286Z,12.40
2023-01-21T15:02:20.838Z,12.77
2023-01-21T15:05:03.635Z,12.07
2023-01-21T15:08:11.887Z,13.10
2023-01-21T15:11:06.628Z,10.32
2023-01-21T15:14:03.892Z,10.63
2023-01-21T15:16:46.917Z,13.43
2023-01-21T15:19:30.069Z,11.43
2023-01-21T15:22:40.918Z,11.60
2023-01-21T15:25:36.973Z,11.55
2023-01-21T15:28:40.543Z,10.73
2023-01-21T15:31:23.805Z,11.10
2023-01-21T15:34:19.183Z,11.50
2023-01-21T15:36:57.385Z,11.75
2023-01-21T15:39:33.630Z,10.70
2023-01-21T15:42:20.473Z,10.15
2023-01-21T15:45:38.076Z,10.57
2023-01-21T15:48:36.479Z,9.82
2023-01-21T15:52:04.922Z,11.30
2023-01-21T15:54:57.615Z,9.00
2023-01-21T15:58:15.750Z,9.50
2023-01-21T16:01:34.548Z,9.70
2023-01-21T16:04:30.771Z,9.35
2023-01-21T16:07:31.289Z,8.95
2023-01-21T16:11:04.652Z,10.63
2023-01-21T16:14:13.064Z,8.50
2023-01-21T16:17:34.456Z,9.82
2023-01-21T16:20:26.831Z,9.85
2023-01-21T16:23:02.727Z,9.00
2023-01-21T16:25:46.379Z,9.55
2023-01-21T16:28:21.352Z,9.48
2023-01-21T16:31:01.797Z,10.55
2023-01-21T16:33:34.764Z,8.88
2023-01-21T16:36:08.842Z,7.68
2023-01-21T16:38:47.147Z,9.05
2023-01-21T16:41:24.413Z,8.20
2023-01-21T16:44:04.362Z,8.65
2023-01-21T16:46:40.430Z,7.38
2023-01-21T16:49:16.417Z,8.95
2023-01-21T16:51:59.550Z,9.00
2023-01-21T16:54:33.431Z,8.48
2023-01-21T16:57:27.827Z,8.48
2023-01-21T17:00:02.775Z,8.85
2023-01-21T17:02:52.308Z,9.05
2023-01-21T17:05:31.047Z,9.85
2023-01-21T17:08:11.625Z,10.20
2023-01-21T17:11:00.306Z,10.70
2023-01-21T17:13:41.023Z,9.10
2023-01-21T17:16:25.762Z,10.63
2023-01-21T17:19:06.090Z,10.43
2023-01-21T17:21:49.491Z,10.60
2023-01-21T17:24:34.018Z,10.57
2023-01-21T17:27:17.581Z,10.35
2023-01-21T17:29:51.315Z,9.98
2023-01-21T17:32:32.785Z,9.40
2023-01-21T17:35:13.929Z,10.98
2023-01-21T17:37:52.130Z,10.60
2023-01-21T17:40:36.730Z,9.70
2023-01-21T17:43:22.491Z,12.00
2023-01-21T17:45:58.148Z,11.35
2023-01-21T17:48:37.619Z,9.80
2023-01-21T17:51:25.828Z,11.27
2023-01-21T17:54:06.109Z,11.50
2023-01-21T17:57:00.554Z,12.13
2023-01-21T17:59:36.055Z,11.95
2023-01-21T18:02:17.851Z,10.98
2023-01-21T18:04:52.614Z,10.70
2023-01-21T18:07:30.026Z,10.63
2023-01-21T18:10:02.927Z,11.35
2023-01-21T18:12:42.901Z,10.68
2023-01-21T18:15:18.292Z,11.68
2023-01-21T18:18:02.484Z,11.40
2023-01-21T18:20:36.331Z,11.38
2023-01-21T18:23:11.840Z,10.13
2023-01-21T18:25:57.488Z,10.95
2023-01-21T18:28:31.608Z,10.93
2023-01-21T18:31:05.374Z,11.00
2023-01-21T18:33:40.961Z,10.55
2023-01-21T18:36:13.987Z,11.95
2023-01-21T18:38:46.270Z,10.18
2023-01-21T18:41:18.548Z,11.05
2023-01-21T18:44:18.005Z,10.77
2023-01-21T18:46:50.437Z,9.90
2023-01-21T18:49:23.430Z,10.45
2023-01-21T18:51:56.285Z,11.30
2023-01-21T18:54:29.174Z,11.52
2023-01-21T18:57:01.612Z,10.70
2023-01-21T18:59:34.612Z,12.45
2023-01-21T19:02:20.896Z,12.77
2023-01-21T19:04:53.181Z,11.63
2023-01-21T19:07:25.834Z,11.80
2023-01-21T19:09:59.660Z,12.00
2023-01-21T19:12:32.285Z,12.27
2023-01-21T19:15:08.178Z,13.60
2023-01-21T19:18:12.346Z,13.18
2023-01-21T19:20:45.886Z,15.45
2023-01-21T19:23:18.634Z,15.00
2023-01-21T19:25:55.788Z,13.75
2023-01-21T19:28:28.516Z,15.05
2023-01-21T19:31:01.448Z,16.15
2023-01-21T19:33:34.384Z,16.23
2023-01-21T19:36:16.682Z,17.10
2023-01-21T19:38:55.841Z,16.90
2023-01-21T19:41:29.627Z,15.32
2023-01-21T19:44:02.099Z,15.00
2023-01-21T19:46:34.906Z,17.92
2023-01-21T19:49:17.241Z,17.40
2023-01-21T19:51:50.146Z,14.30
2023-01-21T19:54:23.113Z,14.48
2023-01-21T19:57:29.639Z,13.43
2023-01-21T20:00:02.517Z,14.35
2023-01-21T20:02:54.905Z,15.43
2023-01-21T20:05:30.323Z,15.85
2023-01-21T20:08:06.572Z,14.80
2023-01-21T20:10:50.229Z,15.10
2023-01-21T20:13:23.336Z,16.00
2023-01-21T20:15:57.060Z,14.00
2023-01-21T20:18:33.357Z,13.75
2023-01-21T20:21:06.359Z,14.80
2023-01-21T20:23:39.482Z,15.00
2023-01-21T20:26:21.882Z,13.60
2023-01-21T20:28:57.985Z,13.93
2023-01-21T20:31:35.654Z,13.45
2023-01-21T20:34:09.230Z,14.45
2023-01-21T20:36:44.387Z,15.25
2023-01-21T20:39:26.202Z,15.40
2023-01-21T20:41:58.539Z,13.50
2023-01-21T20:44:30.811Z,15.85
2023-01-21T20:47:03.732Z,14.95
2023-01-21T20:49:36.068Z,14.90
2023-01-21T20:52:10.833Z,14.30
2023-01-21T20:54:43.269Z,14.45
2023-01-21T20:57:18.751Z,15.52
2023-01-21T20:59:51.376Z,17.85
2023-01-21T21:02:23.934Z,16.10
2023-01-21T21:04:56.595Z,14.25
2023-01-21T21:07:28.867Z,14.65
2023-01-21T21:10:01.958Z,13.68
2023-01-21T21:12:35.416Z,15.05
2023-01-21T21:15:10.784Z,14.70
2023-01-21T21:17:44.931Z,15.23
2023-01-21T21:20:39.445Z,17.23
2023-01-21T21:23:15.435Z,16.25
2023-01-21T21:25:48.727Z,16.42
2023-01-21T21:28:21.390Z,14.60
2023-01-21T21:31:32.119Z,16.35
2023-01-21T21:34:04.414Z,15.68
2023-01-21T21:36:36.957Z,14.90
2023-01-21T21:39:12.627Z,13.68
2023-01-21T21:42:08.614Z,14.90
2023-01-21T21:45:00.415Z,14.65
2023-01-21T21:47:51.336Z,15.63
2023-01-21T21:50:43.380Z,14.85
2023-01-21T21:53:15.657Z,16.08
2023-01-21T21:55:47.848Z,14.82
2023-01-21T21:58:20.526Z,14.88
2023-01-21T22:00:54.380Z,15.50
2023-01-21T22:03:26.605Z,14.63
2023-01-21T22:06:01.872Z,15.13
2023-01-21T22:08:37.269Z,16.45
2023-01-21T22:11:16.812Z,15.80
2023-01-21T22:13:51.425Z,15.25
2023-01-21T22:16:28.796Z,15.13
2023-01-21T22:19:01.933Z,15.40
2023-01-21T22:21:34.560Z,14.18
2023-01-21T22:24:08.287Z,13.35
2023-01-21T22:26:40.811Z,15.25
2023-01-21T22:29:13.101Z,16.67
2023-01-21T22:31:45.197Z,15.40
2023-01-21T22:34:17.521Z,14.23
2023-01-21T22:37:32.928Z,12.70
2023-01-21T22:40:05.831Z,14.07
2023-01-21T22:42:55.336Z,14.98
2023-01-21T22:45:27.748Z,15.77
2023-01-21T22:48:00.122Z,14.82
2023-01-21T22:50:33.152Z,14.40
2023-01-21T22:53:05.759Z,12.95
2023-01-21T22:55:38.513Z,13.20
2023-01-21T22:58:11.386Z,15.80
2023-01-21T23:00:44.189Z,14.30
2023-01-21T23:03:16.702Z,14.77
2023-01-21T23:05:49.901Z,14.02
2023-01-21T23:08:23.117Z,14.45
2023-01-21T23:11:04.707Z,13.77
2023-01-21T23:13:38.355Z,13.32
2023-01-21T23:16:14.418Z,12.73
2023-01-21T23:18:49.709Z,14.00
2023-01-21T23:21:22.570Z,14.32
2023-01-21T23:23:55.239Z,14.85
2023-01-21T23:26:27.667Z,13.77
2023-01-21T23:29:00.409Z,14.20
2023-01-21T23:31:32.781Z,13.80
2023-01-21T23:34:06.834Z,13.02
2023-01-21T23:36:43.195Z,13.95
2023-01-21T23:39:15.974Z,13.55
2023-01-21T23:41:48.654Z,14.00
2023-01-21T23:44:20.915Z,12.95
2023-01-21T23:46:56.271Z,13.75
2023-01-21T23:49:29.640Z,12.65
2023-01-21T23:52:05.325Z,13.90
2023-01-21T23:54:43.917Z,12.90
2023-01-21T23:57:16.299Z,13.73
2023-01-21T23:59:48.690Z,12.75
